Time,TemperatureF,DewpointF,PressureIn,WindDirection,WindDirectionDegrees,WindSpeedMPH,WindSpeedGustMPH,Humidity,HourlyPrecipIn,Conditions,Clouds,dailyrainin,SoftwareType,DateUTC
2013-05-09 00:01:00,65.8,63.4,30.04,South,190,4.0,7.0,92,0.00,,SKC,0.00,VWS V14.00,2013-05-09 05:01:00,
2013-05-09 00:06:00,65.7,63.3,30.03,South,190,4.0,6.0,92,0.00,,SKC,0.00,VWS V14.00,2013-05-09 05:06:00,
2013-05-09 00:11:00,65.6,63.2,30.03,South,189,4.0,6.0,92,0.00,,SKC,0.00,VWS V14.00,2013-05-09 05:11:00,
2013-05-09 00:16:00,65.7,63.6,30.03,South,173,7.0,8.0,93,0.00,,SKC,0.00,VWS V14.00,2013-05-09 05:16:00,
2013-05-09 00:21:00,65.8,63.7,30.03,South,170,6.0,8.0,93,0.00,,SKC,0.00,VWS V14.00,2013-05-09 05:21:00,
2013-05-09 00:26:00,65.8,63.7,30.02,SSE,159,7.0,9.0,93,0.00,,SKC,0.00,VWS V14.00,2013-05-09 05:26:00,
2013-05-09 00:31:00,65.8,63.7,30.02,SSE,156,6.0,9.0,93,0.00,,SKC,0.00,VWS V14.00,2013-05-09 05:31:00,
2013-05-09 00:36:00,65.9,63.8,30.02,SSE,157,7.0,9.0,93,0.00,,SKC,0.00,VWS V14.00,2013-05-09 05:36:00,
2013-05-09 00:41:00,65.8,63.7,30.02,SSE,161,5.0,9.0,93,0.00,,SKC,0.00,VWS V14.00,2013-05-09 05:41:00,
2013-05-09 00:46:00,65.7,63.3,30.02,SSE,161,2.0,9.0,92,0.00,,SKC,0.00,VWS V14.00,2013-05-09 05:46:00,
2013-05-09 00:51:00,65.4,63.3,30.02,SSE,161,4.0,9.0,93,0.00,,SKC,0.00,VWS V14.00,2013-05-09 05:51:00,
2013-05-09 00:56:00,65.3,63.2,30.02,SSE,161,4.0,9.0,93,0.00,,SKC,0.00,VWS V14.00,2013-05-09 05:56:00,
2013-05-09 01:01:00,65.3,63.2,30.02,SSE,161,4.0,9.0,93,0.00,,SKC,0.00,VWS V14.00,2013-05-09 06:01:00,
2013-05-09 01:06:00,65.3,63.2,30.01,SSE,161,5.0,6.0,93,0.00,,SKC,0.00,VWS V14.00,2013-05-09 06:06:00,
2013-05-09 01:11:00,65.2,63.1,30.01,SSE,161,5.0,7.0,93,0.00,,SKC,0.00,VWS V14.00,2013-05-09 06:11:00,
2013-05-09 01:16:00,65.3,63.5,30.01,SSE,163,6.0,7.0,94,0.00,,SKC,0.00,VWS V14.00,2013-05-09 06:16:00,
2013-05-09 01:21:00,65.3,63.2,30.01,SSE,166,4.0,8.0,93,0.00,,SKC,0.00,VWS V14.00,2013-05-09 06:21:00,
2013-05-09 01:26:00,65.1,63.3,30.01,South,169,6.0,8.0,94,0.00,,SKC,0.00,VWS V14.00,2013-05-09 06:26:00,
2013-05-09 01:31:00,65.2,63.4,30.00,South,169,6.0,8.0,94,0.00,,SKC,0.00,VWS V14.00,2013-05-09 06:31:00,
2013-05-09 01:36:00,65.2,63.4,30.00,SSE,168,4.0,8.0,94,0.00,,SKC,0.00,VWS V14.00,2013-05-09 06:36:00,
2013-05-09 01:41:00,65.3,63.5,30.00,SSE,168,4.0,8.0,94,0.00,,SKC,0.00,VWS V14.00,2013-05-09 06:41:00,
2013-05-09 01:46:00,65.3,63.5,30.00,SSE,168,5.0,8.0,94,0.00,,SKC,0.00,VWS V14.00,2013-05-09 06:46:00,
2013-05-09 01:51:00,65.3,63.5,30.00,SSE,168,4.0,8.0,94,0.00,,SKC,0.00,VWS V14.00,2013-05-09 06:51:00,
2013-05-09 01:56:00,65.2,63.4,30.00,SSE,168,4.0,8.0,94,0.00,,SKC,0.00,VWS V14.00,2013-05-09 06:56:00,
2013-05-09 02:01:00,65.2,63.1,30.00,SSE,168,4.0,8.0,93,0.00,,SKC,0.00,VWS V14.00,2013-05-09 07:01:00,
2013-05-09 02:06:00,65.2,63.4,30.00,SSE,168,4.0,5.0,94,0.00,,SKC,0.00,VWS V14.00,2013-05-09 07:06:00,
2013-05-09 02:11:00,65.2,63.1,30.00,SSE,168,1.0,5.0,93,0.00,,SKC,0.00,VWS V14.00,2013-05-09 07:11:00,
2013-05-09 02:16:00,65.0,62.9,30.00,SSE,168,1.0,5.0,93,0.00,,SKC,0.00,VWS V14.00,2013-05-09 07:16:00,
2013-05-09 02:21:00,65.0,63.2,30.00,SSE,168,0.0,5.0,94,0.00,,SKC,0.00,VWS V14.00,2013-05-09 07:21:00,
2013-05-09 02:26:00,65.0,63.2,30.00,SSE,168,0.0,5.0,94,0.00,,SKC,0.00,VWS V14.00,2013-05-09 07:26:00,
2013-05-09 02:31:00,65.0,63.2,30.00,SSE,168,0.0,5.0,94,0.00,,SKC,0.00,VWS V14.00,2013-05-09 07:31:00,
2013-05-09 02:36:00,65.0,63.2,30.00,SSE,168,0.0,5.0,94,0.00,,SKC,0.00,VWS V14.00,2013-05-09 07:36:00,
2013-05-09 02:41:00,64.9,63.1,30.00,SSE,168,0.0,5.0,94,0.00,,SKC,0.00,VWS V14.00,2013-05-09 07:41:00,
2013-05-09 02:46:00,64.9,63.1,30.00,SSE,168,0.0,5.0,94,0.00,,SKC,0.00,VWS V14.00,2013-05-09 07:46:00,
2013-05-09 02:51:00,64.9,63.1,30.00,SSE,168,2.0,5.0,94,0.00,,SKC,0.00,VWS V14.00,2013-05-09 07:51:00,
2013-05-09 02:56:00,65.0,63.5,30.00,SSE,168,1.0,5.0,95,0.00,,SKC,0.00,VWS V14.00,2013-05-09 07:56:00,
2013-05-09 03:01:00,65.2,63.7,30.00,SSE,168,2.0,5.0,95,0.00,,SKC,0.00,VWS V14.00,2013-05-09 08:01:00,
2013-05-09 03:06:00,65.2,63.7,30.00,SSE,168,5.0,6.0,95,0.00,,SKC,0.00,VWS V14.00,2013-05-09 08:06:00,
2013-05-09 03:11:00,65.2,63.4,30.00,SSE,168,5.0,6.0,94,0.00,,SKC,0.00,VWS V14.00,2013-05-09 08:11:00,
2013-05-09 03:16:00,65.1,63.3,30.00,SSE,168,4.0,6.0,94,0.00,,SKC,0.00,VWS V14.00,2013-05-09 08:16:00,
2013-05-09 03:21:00,65.0,63.2,29.99,SSE,168,2.0,6.0,94,0.00,,SKC,0.00,VWS V14.00,2013-05-09 08:21:00,
2013-05-09 03:26:00,64.9,63.4,29.99,SSE,168,4.0,6.0,95,0.00,,SKC,0.00,VWS V14.00,2013-05-09 08:26:00,
2013-05-09 03:31:00,64.9,63.4,29.99,SSE,168,4.0,6.0,95,0.00,,SKC,0.00,VWS V14.00,2013-05-09 08:31:00,
2013-05-09 03:36:00,64.7,63.2,29.99,SSE,168,2.0,6.0,95,0.00,,SKC,0.00,VWS V14.00,2013-05-09 08:36:00,
2013-05-09 03:41:00,64.5,62.7,29.99,SSE,168,2.0,6.0,94,0.00,,SKC,0.00,VWS V14.00,2013-05-09 08:41:00,
2013-05-09 03:46:00,64.4,62.9,29.99,SSE,168,2.0,6.0,95,0.00,,SKC,0.00,VWS V14.00,2013-05-09 08:46:00,
2013-05-09 03:51:00,64.4,62.9,29.99,SSE,168,1.0,6.0,95,0.00,,SKC,0.00,VWS V14.00,2013-05-09 08:51:00,
2013-05-09 03:56:00,64.4,62.9,30.00,SSE,168,1.0,6.0,95,0.00,,SKC,0.00,VWS V14.00,2013-05-09 08:56:00,
2013-05-09 04:01:00,64.3,62.8,30.00,SSE,168,0.0,6.0,95,0.00,,SKC,0.00,VWS V14.00,2013-05-09 09:01:00,
2013-05-09 04:06:00,64.2,62.7,30.00,SSE,168,0.0,0.0,95,0.00,,SKC,0.00,VWS V14.00,2013-05-09 09:06:00,
2013-05-09 04:11:00,64.2,62.7,30.00,SSE,168,0.0,0.0,95,0.00,,SKC,0.00,VWS V14.00,2013-05-09 09:11:00,
2013-05-09 04:16:00,64.1,62.6,30.00,SSE,168,0.0,0.0,95,0.00,,SKC,0.00,VWS V14.00,2013-05-09 09:16:00,
2013-05-09 04:21:00,64.1,62.6,30.00,SSE,168,0.0,0.0,95,0.00,,SKC,0.00,VWS V14.00,2013-05-09 09:21:00,
2013-05-09 04:26:00,64.0,62.5,30.01,SSE,168,0.0,0.0,95,0.00,,SKC,0.00,VWS V14.00,2013-05-09 09:26:00,
2013-05-09 04:31:00,63.9,62.4,30.00,SSE,168,0.0,0.0,95,0.00,,SKC,0.00,VWS V14.00,2013-05-09 09:31:00,
2013-05-09 04:36:00,63.7,62.2,30.01,SSE,168,0.0,0.0,95,0.00,,SKC,0.00,VWS V14.00,2013-05-09 09:36:00,
2013-05-09 04:41:00,63.4,62.0,30.01,SSE,168,0.0,0.0,95,0.00,,SKC,0.00,VWS V14.00,2013-05-09 09:41:00,
2013-05-09 04:46:00,63.2,61.8,30.01,SSE,168,0.0,0.0,95,0.00,,SKC,0.00,VWS V14.00,2013-05-09 09:46:00,
2013-05-09 04:51:00,63.0,61.5,30.01,SSE,168,0.0,0.0,95,0.00,,SKC,0.00,VWS V14.00,2013-05-09 09:51:00,
2013-05-09 04:56:00,62.9,61.5,30.01,SSE,168,0.0,0.0,95,0.00,,SKC,0.00,VWS V14.00,2013-05-09 09:56:00,
2013-05-09 05:01:00,62.7,61.2,30.02,SSE,168,0.0,0.0,95,0.00,,SKC,0.00,VWS V14.00,2013-05-09 10:01:00,
2013-05-09 05:06:00,62.7,61.2,30.02,SSE,168,0.0,0.0,95,0.00,,SKC,0.00,VWS V14.00,2013-05-09 10:06:00,
2013-05-09 05:11:00,62.5,61.0,30.02,SSE,168,0.0,0.0,95,0.00,,SKC,0.00,VWS V14.00,2013-05-09 10:11:00,
2013-05-09 05:16:00,62.5,61.3,30.02,SSE,168,0.0,0.0,96,0.00,,SKC,0.00,VWS V14.00,2013-05-09 10:16:00,
2013-05-09 05:21:00,62.4,61.2,30.02,SSE,168,0.0,0.0,96,0.00,,SKC,0.00,VWS V14.00,2013-05-09 10:21:00,
2013-05-09 05:26:00,62.3,61.2,30.02,SSE,168,0.0,0.0,96,0.00,,SKC,0.00,VWS V14.00,2013-05-09 10:26:00,
2013-05-09 05:31:00,62.2,61.0,30.02,SSE,168,0.0,0.0,96,0.00,,SKC,0.00,VWS V14.00,2013-05-09 10:31:00,
2013-05-09 05:36:00,62.2,61.0,30.02,SSE,168,0.0,0.0,96,0.00,,SKC,0.00,VWS V14.00,2013-05-09 10:36:00,
2013-05-09 05:41:00,62.0,60.8,30.02,SSE,168,0.0,0.0,96,0.00,,SKC,0.00,VWS V14.00,2013-05-09 10:41:00,
2013-05-09 05:46:00,61.9,60.8,30.02,SSE,168,0.0,0.0,96,0.00,,SKC,0.00,VWS V14.00,2013-05-09 10:46:00,
2013-05-09 05:51:00,61.8,60.7,30.02,SSE,168,0.0,0.0,96,0.00,,SKC,0.00,VWS V14.00,2013-05-09 10:51:00,
2013-05-09 05:56:00,61.6,60.5,30.02,SSE,168,0.0,0.0,96,0.00,,SKC,0.00,VWS V14.00,2013-05-09 10:56:00,
2013-05-09 06:01:00,61.5,60.3,30.02,SSE,168,0.0,0.0,96,0.00,,SKC,0.00,VWS V14.00,2013-05-09 11:01:00,
2013-05-09 06:06:00,61.3,60.2,30.02,SSE,168,0.0,0.0,96,0.00,,SKC,0.00,VWS V14.00,2013-05-09 11:06:00,
2013-05-09 06:11:00,61.2,60.0,30.02,SSE,168,0.0,0.0,96,0.00,,SKC,0.00,VWS V14.00,2013-05-09 11:11:00,
2013-05-09 06:16:00,61.1,60.0,30.02,SSE,168,0.0,0.0,96,0.00,,SKC,0.00,VWS V14.00,2013-05-09 11:16:00,
2013-05-09 06:21:00,60.9,59.8,30.03,SSE,168,0.0,0.0,96,0.00,,SKC,0.00,VWS V14.00,2013-05-09 11:21:00,
2013-05-09 06:26:00,60.8,59.7,30.03,SSE,168,0.0,0.0,96,0.00,,SKC,0.00,VWS V14.00,2013-05-09 11:26:00,
2013-05-09 06:31:00,60.8,59.7,30.03,SSE,168,0.0,0.0,96,0.00,,SKC,0.00,VWS V14.00,2013-05-09 11:31:00,
2013-05-09 06:36:00,60.8,59.7,30.03,SSE,168,0.0,0.0,96,0.00,,SKC,0.00,VWS V14.00,2013-05-09 11:36:00,
2013-05-09 06:41:00,60.8,59.7,30.03,SSE,168,0.0,0.0,96,0.00,,SKC,0.00,VWS V14.00,2013-05-09 11:41:00,
2013-05-09 06:46:00,60.8,59.7,30.03,SSE,168,0.0,0.0,96,0.00,,SKC,0.00,VWS V14.00,2013-05-09 11:46:00,
2013-05-09 06:51:00,60.8,59.7,30.03,SSE,168,0.0,0.0,96,0.00,,SKC,0.00,VWS V14.00,2013-05-09 11:51:00,
2013-05-09 06:56:00,60.8,59.7,30.03,SSE,168,0.0,0.0,96,0.00,,SKC,0.00,VWS V14.00,2013-05-09 11:56:00,
2013-05-09 07:01:00,60.9,60.0,30.04,SSE,168,0.0,0.0,97,0.00,,SKC,0.00,VWS V14.00,2013-05-09 12:01:00,
2013-05-09 07:06:00,61.0,60.2,30.04,SSE,168,0.0,0.0,97,0.00,,SKC,0.00,VWS V14.00,2013-05-09 12:06:00,
2013-05-09 07:11:00,61.2,60.3,30.03,South,169,0.0,0.0,97,0.00,,SKC,0.00,VWS V14.00,2013-05-09 12:11:00,
2013-05-09 07:16:00,61.4,60.5,30.03,East,98,0.0,0.0,97,0.00,,SKC,0.00,VWS V14.00,2013-05-09 12:16:00,
2013-05-09 07:21:00,61.6,60.7,30.04,East,98,0.0,0.0,97,0.00,,SKC,0.00,VWS V14.00,2013-05-09 12:21:00,
2013-05-09 07:26:00,61.9,61.0,30.04,East,98,0.0,0.0,97,0.00,,SKC,0.00,VWS V14.00,2013-05-09 12:26:00,
2013-05-09 07:31:00,62.3,61.7,30.04,East,98,0.0,0.0,98,0.00,,SKC,0.00,VWS V14.00,2013-05-09 12:31:00,
2013-05-09 07:36:00,63.0,62.4,30.04,East,98,0.0,0.0,98,0.00,,SKC,0.00,VWS V14.00,2013-05-09 12:36:00,
2013-05-09 07:41:00,63.8,63.2,30.04,East,98,4.0,5.0,98,0.00,,SKC,0.00,VWS V14.00,2013-05-09 12:41:00,
2013-05-09 07:46:00,65.1,64.5,30.04,SE,139,4.0,6.0,98,0.00,,SKC,0.00,VWS V14.00,2013-05-09 12:46:00,
2013-05-09 07:51:00,65.9,65.3,30.05,SSE,153,2.0,6.0,98,0.00,,SKC,0.00,VWS V14.00,2013-05-09 12:51:00,
2013-05-09 07:56:00,66.3,65.7,30.05,SSE,153,6.0,7.0,98,0.00,,SKC,0.00,VWS V14.00,2013-05-09 12:56:00,
2013-05-09 08:01:00,66.7,66.1,30.05,SSE,151,8.0,8.0,98,0.00,,SKC,0.00,VWS V14.00,2013-05-09 13:01:00,
2013-05-09 08:06:00,67.0,66.4,30.05,SSE,164,6.0,8.0,98,0.00,,SKC,0.00,VWS V14.00,2013-05-09 13:06:00,
2013-05-09 08:11:00,67.3,66.4,30.05,SSE,167,4.0,8.0,97,0.00,,SKC,0.00,VWS V14.00,2013-05-09 13:11:00,
2013-05-09 08:16:00,67.8,66.9,30.05,SSE,167,7.0,8.0,97,0.00,,SKC,0.00,VWS V14.00,2013-05-09 13:16:00,
2013-05-09 08:21:00,68.1,67.2,30.05,SSE,167,6.0,8.0,97,0.00,,SKC,0.00,VWS V14.00,2013-05-09 13:21:00,
2013-05-09 08:26:00,68.6,67.7,30.05,South,170,5.0,8.0,97,0.00,,SKC,0.00,VWS V14.00,2013-05-09 13:26:00,
2013-05-09 08:31:00,68.9,67.7,30.05,South,171,5.0,9.0,96,0.00,,SKC,0.00,VWS V14.00,2013-05-09 13:31:00,
2013-05-09 08:36:00,69.3,67.8,30.05,South,173,7.0,9.0,95,0.00,,SKC,0.00,VWS V14.00,2013-05-09 13:36:00,
2013-05-09 08:41:00,69.9,68.1,30.05,South,190,9.0,9.0,94,0.00,,SKC,0.00,VWS V14.00,2013-05-09 13:41:00,
2013-05-09 08:46:00,70.4,68.3,30.05,SSW,196,6.0,10.0,93,0.00,,SKC,0.00,VWS V14.00,2013-05-09 13:46:00,
2013-05-09 08:51:00,71.1,68.7,30.06,South,178,11.0,11.0,92,0.00,,SKC,0.00,VWS V14.00,2013-05-09 13:51:00,
2013-05-09 08:56:00,71.7,68.6,30.06,South,174,6.0,11.0,90,0.00,,SKC,0.00,VWS V14.00,2013-05-09 13:56:00,
2013-05-09 09:01:00,72.1,68.7,30.06,SSW,195,11.0,12.0,89,0.00,,SKC,0.00,VWS V14.00,2013-05-09 14:01:00,
2013-05-09 09:06:00,72.6,69.5,30.05,SSE,166,10.0,10.0,90,0.00,,SKC,0.00,VWS V14.00,2013-05-09 14:06:00,
2013-05-09 09:11:00,73.4,69.0,30.05,SSE,168,10.0,13.0,86,0.00,,SKC,0.00,VWS V14.00,2013-05-09 14:11:00,
2013-05-09 09:16:00,73.7,68.9,30.05,South,175,8.0,15.0,85,0.00,,SKC,0.00,VWS V14.00,2013-05-09 14:16:00,
2013-05-09 09:21:00,74.0,68.9,30.06,South,176,11.0,18.0,84,0.00,,SKC,0.00,VWS V14.00,2013-05-09 14:21:00,
2013-05-09 09:26:00,74.2,68.4,30.05,SSW,196,13.0,19.0,82,0.00,,SKC,0.00,VWS V14.00,2013-05-09 14:26:00,
2013-05-09 09:31:00,74.2,68.7,30.05,South,184,7.0,19.0,83,0.00,,SKC,0.00,VWS V14.00,2013-05-09 14:31:00,
2013-05-09 09:36:00,74.4,68.9,30.05,South,184,10.0,19.0,83,0.00,,SKC,0.00,VWS V14.00,2013-05-09 14:36:00,
2013-05-09 09:41:00,74.9,69.0,30.05,SSE,162,14.0,19.0,82,0.00,,SKC,0.00,VWS V14.00,2013-05-09 14:41:00,
2013-05-09 09:46:00,75.0,68.8,30.05,South,190,13.0,19.0,81,0.00,,SKC,0.00,VWS V14.00,2013-05-09 14:46:00,
2013-05-09 09:51:00,75.2,69.0,30.05,South,177,15.0,19.0,81,0.00,,SKC,0.00,VWS V14.00,2013-05-09 14:51:00,
2013-05-09 09:56:00,75.4,68.8,30.05,SSW,198,14.0,19.0,80,0.00,,SKC,0.00,VWS V14.00,2013-05-09 14:56:00,
2013-05-09 10:01:00,75.6,69.0,30.06,SSW,194,12.0,19.0,80,0.00,,SKC,0.00,VWS V14.00,2013-05-09 15:01:00,
2013-05-09 10:06:00,76.0,69.0,30.06,South,177,12.0,15.0,79,0.00,,SKC,0.00,VWS V14.00,2013-05-09 15:06:00,
2013-05-09 10:11:00,76.3,68.6,30.06,South,178,12.0,15.0,77,0.00,,SKC,0.00,VWS V14.00,2013-05-09 15:11:00,
2013-05-09 10:16:00,76.4,69.0,30.06,SSE,160,12.0,15.0,78,0.00,,SKC,0.00,VWS V14.00,2013-05-09 15:16:00,
2013-05-09 10:21:00,76.5,69.1,30.06,South,178,9.0,15.0,78,0.00,,SKC,0.00,VWS V14.00,2013-05-09 15:21:00,
2013-05-09 10:26:00,76.7,69.3,30.06,SSW,204,7.0,15.0,78,0.00,,SKC,0.00,VWS V14.00,2013-05-09 15:26:00,
2013-05-09 10:31:00,76.9,68.8,30.06,South,182,11.0,15.0,76,0.00,,SKC,0.00,VWS V14.00,2013-05-09 15:31:00,
2013-05-09 10:36:00,77.1,69.0,30.06,South,172,5.0,15.0,76,0.00,,SKC,0.00,VWS V14.00,2013-05-09 15:36:00,
2013-05-09 10:41:00,77.0,68.9,30.06,SSE,159,7.0,15.0,76,0.00,,SKC,0.00,VWS V14.00,2013-05-09 15:41:00,
2013-05-09 10:46:00,77.5,69.3,30.05,SSE,157,11.0,15.0,76,0.00,,SKC,0.00,VWS V14.00,2013-05-09 15:46:00,
2013-05-09 10:51:00,77.6,69.1,30.06,South,169,8.0,15.0,75,0.00,,SKC,0.00,VWS V14.00,2013-05-09 15:51:00,
2013-05-09 10:56:00,77.3,69.2,30.06,SSW,201,7.0,15.0,76,0.00,,SKC,0.00,VWS V14.00,2013-05-09 15:56:00,
2013-05-09 11:01:00,77.6,69.4,30.06,South,171,8.0,15.0,76,0.00,,SKC,0.00,VWS V14.00,2013-05-09 16:01:00,
2013-05-09 11:06:00,78.3,69.3,30.07,South,179,7.0,12.0,74,0.00,,SKC,0.00,VWS V14.00,2013-05-09 16:06:00,
2013-05-09 11:11:00,78.3,68.9,30.07,SE,146,6.0,13.0,73,0.00,,SKC,0.00,VWS V14.00,2013-05-09 16:11:00,
2013-05-09 11:16:00,78.4,69.4,30.07,SSW,202,10.0,14.0,74,0.00,,SKC,0.00,VWS V14.00,2013-05-09 16:16:00,
2013-05-09 11:21:00,78.4,69.0,30.07,South,172,9.0,14.0,73,0.00,,SKC,0.00,VWS V14.00,2013-05-09 16:21:00,
2013-05-09 11:26:00,78.6,70.0,30.07,SSE,162,8.0,14.0,75,0.00,,SKC,0.00,VWS V14.00,2013-05-09 16:26:00,
2013-05-09 11:31:00,78.7,69.3,30.07,SSE,159,10.0,14.0,73,0.00,,SKC,0.00,VWS V14.00,2013-05-09 16:31:00,
2013-05-09 11:36:00,78.6,68.8,30.07,SSW,196,8.0,14.0,72,0.00,,SKC,0.00,VWS V14.00,2013-05-09 16:36:00,
2013-05-09 11:41:00,78.5,69.5,30.06,SSW,198,7.0,14.0,74,0.00,,SKC,0.00,VWS V14.00,2013-05-09 16:41:00,
2013-05-09 11:46:00,78.7,68.9,30.07,South,176,7.0,14.0,72,0.00,,SKC,0.00,VWS V14.00,2013-05-09 16:46:00,
2013-05-09 11:51:00,78.5,69.1,30.07,SSW,202,5.0,14.0,73,0.00,,SKC,0.00,VWS V14.00,2013-05-09 16:51:00,
2013-05-09 11:56:00,78.4,69.0,30.07,SSW,213,7.0,14.0,73,0.00,,SKC,0.00,VWS V14.00,2013-05-09 16:56:00,
2013-05-09 12:01:00,78.3,69.3,30.07,SSW,210,6.0,14.0,74,0.00,,SKC,0.00,VWS V14.00,2013-05-09 17:01:00,
2013-05-09 12:06:00,78.2,68.8,30.07,SSW,203,6.0,11.0,73,0.00,,SKC,0.00,VWS V14.00,2013-05-09 17:06:00,
2013-05-09 12:11:00,78.2,69.2,30.07,SW,225,6.0,11.0,74,0.00,,SKC,0.00,VWS V14.00,2013-05-09 17:11:00,
2013-05-09 12:16:00,78.1,68.8,30.07,SSW,193,7.0,11.0,73,0.00,,SKC,0.00,VWS V14.00,2013-05-09 17:16:00,
2013-05-09 12:21:00,78.0,69.4,30.07,SSW,194,4.0,11.0,75,0.00,,SKC,0.00,VWS V14.00,2013-05-09 17:21:00,
2013-05-09 12:26:00,78.1,69.1,30.06,SSW,193,7.0,11.0,74,0.00,,SKC,0.00,VWS V14.00,2013-05-09 17:26:00,
2013-05-09 12:31:00,78.0,69.4,30.06,SW,218,4.0,11.0,75,0.00,,SKC,0.00,VWS V14.00,2013-05-09 17:31:00,
2013-05-09 12:36:00,78.0,69.4,30.06,SSW,194,8.0,11.0,75,0.00,,SKC,0.00,VWS V14.00,2013-05-09 17:36:00,
2013-05-09 12:41:00,78.5,69.1,30.06,South,190,10.0,12.0,73,0.00,,SKC,0.00,VWS V14.00,2013-05-09 17:41:00,
2013-05-09 12:46:00,79.2,69.4,30.06,South,185,10.0,14.0,72,0.00,,SKC,0.00,VWS V14.00,2013-05-09 17:46:00,
2013-05-09 12:51:00,79.4,69.2,30.05,SSW,200,9.0,14.0,71,0.00,,SKC,0.00,VWS V14.00,2013-05-09 17:51:00,
2013-05-09 12:56:00,79.8,69.2,30.05,SSE,165,11.0,14.0,70,0.00,,SKC,0.00,VWS V14.00,2013-05-09 17:56:00,
2013-05-09 13:01:00,79.6,69.4,30.05,South,175,12.0,14.0,71,0.00,,SKC,0.00,VWS V14.00,2013-05-09 18:01:00,
2013-05-09 13:06:00,79.5,68.9,30.05,SSW,210,11.0,17.0,70,0.00,,SKC,0.00,VWS V14.00,2013-05-09 18:06:00,
2013-05-09 13:11:00,79.3,69.1,30.05,South,190,11.0,17.0,71,0.00,,SKC,0.00,VWS V14.00,2013-05-09 18:11:00,
2013-05-09 13:16:00,79.2,69.4,30.05,SSW,196,13.0,17.0,72,0.00,,SKC,0.00,VWS V14.00,2013-05-09 18:16:00,
2013-05-09 13:21:00,79.1,68.1,30.05,South,176,9.0,17.0,69,0.00,,SKC,0.00,VWS V14.00,2013-05-09 18:21:00,
2013-05-09 13:26:00,79.1,68.5,30.05,South,179,6.0,17.0,70,0.00,,SKC,0.00,VWS V14.00,2013-05-09 18:26:00,
2013-05-09 13:31:00,79.0,68.8,30.05,SSW,198,5.0,17.0,71,0.00,,SKC,0.00,VWS V14.00,2013-05-09 18:31:00,
2013-05-09 13:36:00,78.7,68.9,30.05,SSW,211,6.0,17.0,72,0.00,,SKC,0.00,VWS V14.00,2013-05-09 18:36:00,
2013-05-09 13:41:00,78.4,68.6,30.05,SSW,195,7.0,17.0,72,0.00,,SKC,0.00,VWS V14.00,2013-05-09 18:41:00,
2013-05-09 13:46:00,78.2,68.8,30.05,SSW,205,4.0,17.0,73,0.00,,SKC,0.00,VWS V14.00,2013-05-09 18:46:00,
2013-05-09 13:51:00,78.0,68.7,30.05,SSW,200,6.0,17.0,73,0.00,,SKC,0.00,VWS V14.00,2013-05-09 18:51:00,
2013-05-09 13:56:00,77.9,68.9,30.05,SSW,205,6.0,17.0,74,0.00,,SKC,0.00,VWS V14.00,2013-05-09 18:56:00,
2013-05-09 14:01:00,77.8,68.5,30.05,South,173,8.0,17.0,73,0.00,,SKC,0.00,VWS V14.00,2013-05-09 19:01:00,
2013-05-09 14:06:00,77.9,68.6,30.05,South,186,8.0,13.0,73,0.00,,SKC,0.00,VWS V14.00,2013-05-09 19:06:00,
2013-05-09 14:11:00,77.7,68.4,30.04,South,181,7.0,13.0,73,0.00,,SKC,0.00,VWS V14.00,2013-05-09 19:11:00,
2013-05-09 14:16:00,77.6,68.3,30.04,SSW,193,11.0,16.0,73,0.00,,SKC,0.00,VWS V14.00,2013-05-09 19:16:00,
2013-05-09 14:21:00,77.6,68.3,30.04,SSW,192,13.0,16.0,73,0.00,,SKC,0.00,VWS V14.00,2013-05-09 19:21:00,
2013-05-09 14:26:00,77.6,67.9,30.03,South,191,9.0,17.0,72,0.00,,SKC,0.00,VWS V14.00,2013-05-09 19:26:00,
2013-05-09 14:31:00,77.6,68.3,30.03,South,187,13.0,17.0,73,0.00,,SKC,0.00,VWS V14.00,2013-05-09 19:31:00,
2013-05-09 14:36:00,77.4,68.1,30.03,South,178,9.0,17.0,73,0.00,,SKC,0.00,VWS V14.00,2013-05-09 19:36:00,
2013-05-09 14:41:00,77.2,67.9,30.03,SSW,192,15.0,17.0,73,0.00,,SKC,0.00,VWS V14.00,2013-05-09 19:41:00,
2013-05-09 14:46:00,77.1,68.2,30.03,South,183,9.0,17.0,74,0.00,,SKC,0.00,VWS V14.00,2013-05-09 19:46:00,
2013-05-09 14:51:00,77.0,68.1,30.03,South,185,12.0,17.0,74,0.00,,SKC,0.00,VWS V14.00,2013-05-09 19:51:00,
2013-05-09 14:56:00,76.9,68.4,30.03,South,177,10.0,17.0,75,0.00,,SKC,0.00,VWS V14.00,2013-05-09 19:56:00,
2013-05-09 15:01:00,76.9,68.4,30.03,South,184,13.0,17.0,75,0.00,,SKC,0.00,VWS V14.00,2013-05-09 20:01:00,
2013-05-09 15:06:00,76.9,68.4,30.03,SSW,194,13.0,15.0,75,0.00,,SKC,0.00,VWS V14.00,2013-05-09 20:06:00,
2013-05-09 15:11:00,76.7,68.6,30.03,SSW,196,14.0,15.0,76,0.00,,SKC,0.00,VWS V14.00,2013-05-09 20:11:00,
2013-05-09 15:16:00,76.6,68.5,30.03,South,178,11.0,17.0,76,0.00,,SKC,0.00,VWS V14.00,2013-05-09 20:16:00,
2013-05-09 15:21:00,76.6,68.9,30.02,South,188,6.0,17.0,77,0.00,,SKC,0.00,VWS V14.00,2013-05-09 20:21:00,
2013-05-09 15:26:00,76.7,68.9,30.02,South,184,10.0,17.0,77,0.00,,SKC,0.00,VWS V14.00,2013-05-09 20:26:00,
2013-05-09 15:31:00,76.7,69.3,30.02,South,184,11.0,17.0,78,0.00,,SKC,0.00,VWS V14.00,2013-05-09 20:31:00,
2013-05-09 15:36:00,76.7,69.3,30.02,SSW,192,11.0,17.0,78,0.00,,SKC,0.00,VWS V14.00,2013-05-09 20:36:00,
2013-05-09 15:41:00,76.8,69.4,30.02,SSW,202,6.0,17.0,78,0.00,,SKC,0.00,VWS V14.00,2013-05-09 20:41:00,
2013-05-09 15:46:00,76.9,69.5,30.01,SSW,201,6.0,17.0,78,0.00,,SKC,0.00,VWS V14.00,2013-05-09 20:46:00,
2013-05-09 15:51:00,77.0,69.2,30.01,SSW,198,11.0,17.0,77,0.00,,SKC,0.00,VWS V14.00,2013-05-09 20:51:00,
2013-05-09 15:56:00,77.1,69.3,30.01,South,180,11.0,17.0,77,0.00,,SKC,0.00,VWS V14.00,2013-05-09 20:56:00,
2013-05-09 16:01:00,77.1,69.7,30.00,South,188,8.0,17.0,78,0.00,,SKC,0.00,VWS V14.00,2013-05-09 21:01:00,
2013-05-09 16:06:00,77.3,69.5,30.00,South,173,13.0,15.0,77,0.00,,SKC,0.00,VWS V14.00,2013-05-09 21:06:00,
2013-05-09 16:11:00,77.4,69.6,30.00,South,182,8.0,15.0,77,0.00,,SKC,0.00,VWS V14.00,2013-05-09 21:11:00,
2013-05-09 16:16:00,77.4,69.6,29.99,South,191,10.0,15.0,77,0.00,,SKC,0.00,VWS V14.00,2013-05-09 21:16:00,
2013-05-09 16:21:00,77.4,70.0,29.99,South,184,12.0,15.0,78,0.00,,SKC,0.00,VWS V14.00,2013-05-09 21:21:00,
2013-05-09 16:26:00,77.7,70.3,29.99,SSE,160,8.0,15.0,78,0.00,,SKC,0.00,VWS V14.00,2013-05-09 21:26:00,
2013-05-09 16:31:00,77.9,69.7,29.99,SSE,167,13.0,16.0,76,0.00,,SKC,0.00,VWS V14.00,2013-05-09 21:31:00,
2013-05-09 16:36:00,78.0,69.8,29.99,SSE,160,15.0,17.0,76,0.00,,SKC,0.00,VWS V14.00,2013-05-09 21:36:00,
2013-05-09 16:41:00,77.8,69.6,30.00,South,169,11.0,17.0,76,0.00,,SKC,0.00,VWS V14.00,2013-05-09 21:41:00,
2013-05-09 16:46:00,77.8,70.0,30.00,SSE,163,11.0,17.0,77,0.00,,SKC,0.00,VWS V14.00,2013-05-09 21:46:00,
2013-05-09 16:51:00,77.7,69.9,30.00,South,184,12.0,17.0,77,0.00,,SKC,0.00,VWS V14.00,2013-05-09 21:51:00,
2013-05-09 16:55:00,77.7,69.9,30.00,South,184,8.0,17.0,77,0.00,,SKC,0.00,VWS V14.00,2013-05-09 21:55:00,
2013-05-09 17:00:00,77.7,69.9,29.99,South,184,11.0,17.0,77,0.00,,SKC,0.00,VWS V14.00,2013-05-09 22:00:00,
2013-05-09 17:05:00,77.9,70.1,29.99,South,190,9.0,13.0,77,0.00,,SKC,0.00,VWS V14.00,2013-05-09 22:05:00,
2013-05-09 17:10:00,77.9,70.1,29.99,SSW,192,9.0,14.0,77,0.00,,SKC,0.00,VWS V14.00,2013-05-09 22:10:00,
2013-05-09 17:16:00,78.0,70.2,29.99,South,169,10.0,15.0,77,0.00,,SKC,0.00,VWS V14.00,2013-05-09 22:16:00,
2013-05-09 17:21:00,77.9,70.1,29.98,South,178,9.0,15.0,77,0.00,,SKC,0.00,VWS V14.00,2013-05-09 22:21:00,
2013-05-09 17:26:00,77.9,70.1,29.98,SSE,161,9.0,15.0,77,0.00,,SKC,0.00,VWS V14.00,2013-05-09 22:26:00,
2013-05-09 17:31:00,77.7,69.9,29.97,SSE,162,11.0,15.0,77,0.00,,SKC,0.00,VWS V14.00,2013-05-09 22:31:00,
2013-05-09 17:36:00,77.7,70.3,29.97,South,184,9.0,15.0,78,0.00,,SKC,0.00,VWS V14.00,2013-05-09 22:36:00,
2013-05-09 17:41:00,77.6,69.8,29.98,South,180,8.0,15.0,77,0.00,,SKC,0.00,VWS V14.00,2013-05-09 22:41:00,
2013-05-09 17:45:00,77.6,70.2,29.97,South,182,8.0,15.0,78,0.00,,SKC,0.00,VWS V14.00,2013-05-09 22:45:00,
2013-05-09 17:50:00,77.6,70.2,29.97,South,177,11.0,15.0,78,0.00,,SKC,0.00,VWS V14.00,2013-05-09 22:50:00,
2013-05-09 17:55:00,77.6,70.2,29.97,SSW,192,13.0,15.0,78,0.00,,SKC,0.00,VWS V14.00,2013-05-09 22:55:00,
2013-05-09 18:00:00,77.7,70.3,29.97,SSE,164,12.0,15.0,78,0.00,,SKC,0.00,VWS V14.00,2013-05-09 23:00:00,
2013-05-09 18:05:00,77.7,69.9,29.97,South,171,8.0,15.0,77,0.00,,SKC,0.00,VWS V14.00,2013-05-09 23:05:00,
2013-05-09 18:10:00,77.7,69.9,29.97,South,186,10.0,16.0,77,0.00,,SKC,0.00,VWS V14.00,2013-05-09 23:10:00,
2013-05-09 18:15:00,77.6,69.8,29.98,South,190,9.0,16.0,77,0.00,,SKC,0.00,VWS V14.00,2013-05-09 23:15:00,
2013-05-09 18:20:00,77.6,70.2,29.97,South,170,9.0,16.0,78,0.00,,SKC,0.00,VWS V14.00,2013-05-09 23:20:00,
2013-05-09 18:25:00,77.5,70.1,29.97,South,180,8.0,16.0,78,0.00,,SKC,0.00,VWS V14.00,2013-05-09 23:25:00,
2013-05-09 18:30:00,77.4,70.0,29.97,South,173,11.0,16.0,78,0.00,,SKC,0.00,VWS V14.00,2013-05-09 23:30:00,
2013-05-09 18:35:00,77.3,70.3,29.97,South,182,8.0,16.0,79,0.00,,SKC,0.00,VWS V14.00,2013-05-09 23:35:00,
2013-05-09 18:40:00,77.2,70.2,29.97,South,180,6.0,16.0,79,0.00,,SKC,0.00,VWS V14.00,2013-05-09 23:40:00,
2013-05-09 18:45:00,77.1,70.1,29.97,South,169,8.0,16.0,79,0.00,,SKC,0.00,VWS V14.00,2013-05-09 23:45:00,
2013-05-09 18:50:00,77.0,70.0,29.97,South,180,8.0,16.0,79,0.00,,SKC,0.00,VWS V14.00,2013-05-09 23:50:00,
2013-05-09 18:55:00,76.9,70.3,29.97,South,175,7.0,16.0,80,0.00,,SKC,0.00,VWS V14.00,2013-05-09 23:55:00,
2013-05-09 19:00:00,76.9,70.3,29.96,SSE,164,7.0,16.0,80,0.00,,SKC,0.00,VWS V14.00,2013-05-10 00:00:00,
2013-05-09 19:05:00,76.9,70.3,29.96,SSE,149,9.0,12.0,80,0.00,,SKC,0.00,VWS V14.00,2013-05-10 00:05:00,
2013-05-09 19:10:00,76.8,70.2,29.95,SSE,160,9.0,12.0,80,0.00,,SKC,0.00,VWS V14.00,2013-05-10 00:10:00,
2013-05-09 19:15:00,76.7,70.1,29.95,SSE,167,8.0,12.0,80,0.00,,SKC,0.00,VWS V14.00,2013-05-10 00:15:00,
2013-05-09 19:20:00,76.6,70.0,29.95,SSE,159,10.0,12.0,80,0.00,,SKC,0.00,VWS V14.00,2013-05-10 00:20:00,
2013-05-09 19:25:00,76.4,70.1,29.95,SSE,165,8.0,12.0,81,0.00,,SKC,0.00,VWS V14.00,2013-05-10 00:25:00,
2013-05-09 19:30:00,76.3,70.1,29.95,South,180,6.0,12.0,81,0.00,,SKC,0.00,VWS V14.00,2013-05-10 00:30:00,
2013-05-09 19:35:00,76.1,69.8,29.95,SSE,167,6.0,12.0,81,0.00,,SKC,0.00,VWS V14.00,2013-05-10 00:35:00,
2013-05-09 19:40:00,76.0,69.8,29.96,South,169,7.0,12.0,81,0.00,,SKC,0.00,VWS V14.00,2013-05-10 00:40:00,
2013-05-09 19:45:00,75.9,69.7,29.96,South,169,6.0,12.0,81,0.00,,SKC,0.00,VWS V14.00,2013-05-10 00:45:00,
2013-05-09 19:50:00,75.8,69.9,29.96,South,170,6.0,12.0,82,0.00,,SKC,0.00,VWS V14.00,2013-05-10 00:50:00,
2013-05-09 19:55:00,75.7,69.8,29.96,SSE,165,7.0,12.0,82,0.00,,SKC,0.00,VWS V14.00,2013-05-10 00:55:00,
2013-05-09 20:00:00,75.6,69.7,29.95,SSE,160,7.0,12.0,82,0.00,,SKC,0.00,VWS V14.00,2013-05-10 01:00:00,
2013-05-09 20:05:00,75.5,69.6,29.96,SSE,161,4.0,8.0,82,0.00,,SKC,0.00,VWS V14.00,2013-05-10 01:05:00,
2013-05-09 20:10:00,75.4,69.9,29.96,SSE,150,5.0,8.0,83,0.00,,SKC,0.00,VWS V14.00,2013-05-10 01:10:00,
2013-05-09 20:15:00,75.4,69.9,29.96,SSE,149,4.0,9.0,83,0.00,,SKC,0.00,VWS V14.00,2013-05-10 01:15:00,
2013-05-09 20:20:00,75.4,69.9,29.96,SE,142,4.0,9.0,83,0.00,,SKC,0.00,VWS V14.00,2013-05-10 01:20:00,
2013-05-09 20:25:00,75.3,69.8,29.96,SE,137,9.0,9.0,83,0.00,,SKC,0.00,VWS V14.00,2013-05-10 01:25:00,
2013-05-09 20:30:00,75.3,69.8,29.96,SSE,150,8.0,12.0,83,0.00,,SKC,0.00,VWS V14.00,2013-05-10 01:30:00,
2013-05-09 20:35:00,75.2,70.0,29.96,SSE,148,5.0,12.0,84,0.00,,SKC,0.00,VWS V14.00,2013-05-10 01:35:00,
2013-05-09 20:40:00,75.2,70.0,29.97,SSE,157,5.0,12.0,84,0.00,,SKC,0.00,VWS V14.00,2013-05-10 01:40:00,
2013-05-09 20:45:00,75.1,69.9,29.97,SSE,150,6.0,12.0,84,0.00,,SKC,0.00,VWS V14.00,2013-05-10 01:45:00,
2013-05-09 20:50:00,75.0,69.8,29.97,SE,140,4.0,12.0,84,0.00,,SKC,0.00,VWS V14.00,2013-05-10 01:50:00,
2013-05-09 20:55:00,74.9,69.7,29.97,SSE,159,7.0,12.0,84,0.00,,SKC,0.00,VWS V14.00,2013-05-10 01:55:00,
2013-05-09 21:00:00,74.8,69.7,29.97,SSE,150,7.0,12.0,84,0.00,,SKC,0.00,VWS V14.00,2013-05-10 02:00:00,
2013-05-09 21:05:00,74.7,69.9,29.97,SSE,155,6.0,12.0,85,0.00,,SKC,0.00,VWS V14.00,2013-05-10 02:05:00,
2013-05-09 21:10:00,74.7,69.9,29.97,SSE,150,8.0,12.0,85,0.00,,SKC,0.00,VWS V14.00,2013-05-10 02:10:00,
2013-05-09 21:15:00,74.7,69.9,29.97,SSE,152,9.0,12.0,85,0.00,,SKC,0.00,VWS V14.00,2013-05-10 02:15:00,
2013-05-09 21:20:00,74.7,69.9,29.98,SSE,152,6.0,13.0,85,0.00,,SKC,0.00,VWS V14.00,2013-05-10 02:20:00,
2013-05-09 21:25:00,74.6,69.8,29.98,SSE,154,11.0,13.0,85,0.00,,SKC,0.00,VWS V14.00,2013-05-10 02:25:00,
2013-05-09 21:30:00,74.6,69.8,29.97,SE,141,9.0,13.0,85,0.00,,SKC,0.00,VWS V14.00,2013-05-10 02:30:00,
2013-05-09 21:35:00,74.6,69.8,29.97,SSE,147,10.0,14.0,85,0.00,,SKC,0.00,VWS V14.00,2013-05-10 02:35:00,
2013-05-09 21:40:00,74.5,69.7,29.97,SSE,154,10.0,14.0,85,0.00,,SKC,0.00,VWS V14.00,2013-05-10 02:40:00,
2013-05-09 21:45:00,74.5,69.7,29.97,SE,140,8.0,14.0,85,0.00,,SKC,0.00,VWS V14.00,2013-05-10 02:45:00,
2013-05-09 21:50:00,74.5,69.7,29.97,SSE,150,5.0,14.0,85,0.00,,SKC,0.00,VWS V14.00,2013-05-10 02:50:00,
2013-05-09 21:55:00,74.5,69.7,29.98,SE,135,4.0,14.0,85,0.00,,SKC,0.00,VWS V14.00,2013-05-10 02:55:00,
2013-05-09 22:00:00,74.5,69.7,29.98,SSE,150,11.0,15.0,85,0.00,,SKC,0.00,VWS V14.00,2013-05-10 03:00:00,
2013-05-09 22:05:00,74.6,69.8,29.98,SSE,158,7.0,14.0,85,0.00,,SKC,0.00,VWS V14.00,2013-05-10 03:05:00,
2013-05-09 22:10:00,74.6,69.8,29.98,SSE,154,12.0,15.0,85,0.00,,SKC,0.00,VWS V14.00,2013-05-10 03:10:00,
2013-05-09 22:15:00,74.5,69.7,29.98,SSE,151,9.0,15.0,85,0.00,,SKC,0.00,VWS V14.00,2013-05-10 03:15:00,
2013-05-09 22:20:00,74.5,69.7,29.98,SSE,150,10.0,15.0,85,0.00,,SKC,0.00,VWS V14.00,2013-05-10 03:20:00,
2013-05-09 22:25:00,74.5,69.7,29.98,SE,140,6.0,17.0,85,0.00,,SKC,0.00,VWS V14.00,2013-05-10 03:25:00,
2013-05-09 22:30:00,74.5,70.0,29.98,SSE,155,8.0,18.0,86,0.00,,SKC,0.00,VWS V14.00,2013-05-10 03:30:00,
2013-05-09 22:35:00,74.4,69.9,29.98,SE,130,7.0,18.0,86,0.00,,SKC,0.00,VWS V14.00,2013-05-10 03:35:00,
2013-05-09 22:40:00,74.3,69.8,29.98,SE,142,8.0,18.0,86,0.00,,SKC,0.00,VWS V14.00,2013-05-10 03:40:00,
2013-05-09 22:45:00,74.2,69.8,29.96,SSE,148,10.0,18.0,86,0.00,,SKC,0.00,VWS V14.00,2013-05-10 03:45:00,
2013-05-09 22:50:00,74.2,69.8,29.96,ESE,117,13.0,18.0,86,0.00,,SKC,0.00,VWS V14.00,2013-05-10 03:50:00,
2013-05-09 22:55:00,74.1,70.0,29.96,SSE,149,12.0,18.0,87,0.00,,SKC,0.00,VWS V14.00,2013-05-10 03:55:00,
2013-05-09 23:00:00,74.0,69.9,29.96,ESE,107,8.0,19.0,87,0.00,,SKC,0.00,VWS V14.00,2013-05-10 04:00:00,
2013-05-09 23:01:00,74.0,69.9,29.96,SSE,165,12.0,19.0,87,0.00,,SKC,0.00,VWS V14.00,2013-05-10 04:01:00,
2013-05-09 23:02:00,74.0,69.9,29.96,SE,144,10.0,10.0,87,0.00,,SKC,0.00,VWS V14.00,2013-05-10 04:02:00,
2013-05-09 23:07:00,74.0,69.9,29.95,SSE,157,13.0,17.0,87,0.00,,SKC,0.00,VWS V14.00,2013-05-10 04:07:00,
2013-05-09 23:12:00,73.9,69.8,29.95,South,180,6.0,17.0,87,0.00,,SKC,0.00,VWS V14.00,2013-05-10 04:12:00,
2013-05-09 23:17:00,73.8,69.7,29.95,SSE,159,9.0,19.0,87,0.00,,SKC,0.00,VWS V14.00,2013-05-10 04:17:00,
2013-05-09 23:22:00,73.8,69.7,29.95,SE,137,11.0,20.0,87,0.00,,SKC,0.00,VWS V14.00,2013-05-10 04:22:00,
2013-05-09 23:26:00,73.8,69.7,29.95,SE,129,9.0,20.0,87,0.00,,SKC,0.00,VWS V14.00,2013-05-10 04:26:00,
2013-05-09 23:32:00,73.8,69.7,29.95,ESE,116,12.0,20.0,87,0.00,,SKC,0.00,VWS V14.00,2013-05-10 04:32:00,
2013-05-09 23:37:00,73.8,69.7,29.95,SSE,157,9.0,20.0,87,0.00,,SKC,0.00,VWS V14.00,2013-05-10 04:37:00,
2013-05-09 23:42:00,73.8,69.7,29.96,SE,146,15.0,20.0,87,0.00,,SKC,0.00,VWS V14.00,2013-05-10 04:42:00,
2013-05-09 23:47:00,73.8,69.7,29.95,SSE,151,15.0,21.0,87,0.00,,SKC,0.00,VWS V14.00,2013-05-10 04:47:00,
2013-05-09 23:52:00,73.8,69.7,29.96,SSE,157,13.0,21.0,87,0.00,,SKC,0.00,VWS V14.00,2013-05-10 04:52:00,
2013-05-09 23:57:00,73.8,69.7,29.95,SSE,153,12.0,21.0,87,0.00,,SKC,0.00,VWS V14.00,2013-05-10 04:57:00,